sensor_id;sensor_type;location;lat;lon;timestamp;P1;durP1;ratioP1;P2;durP2;ratioP2
18013;SDS011;9132;47.946;10.394;2023-02-23T00:00:01;17.77;;;13.37;;
18013;SDS011;9132;47.946;10.394;2023-02-23T00:02:44;17.87;;;13.80;;
18013;SDS011;9132;47.946;10.394;2023-02-23T00:05:11;17.97;;;14.00;;
18013;SDS011;9132;47.946;10.394;2023-02-23T00:07:37;20.53;;;13.80;;
18013;SDS011;9132;47.946;10.394;2023-02-23T00:10:05;19.97;;;14.07;;
18013;SDS011;9132;47.946;10.394;2023-02-23T00:12:35;16.87;;;14.13;;
18013;SDS011;9132;47.946;10.394;2023-02-23T00:15:01;16.33;;;13.27;;
18013;SDS011;9132;47.946;10.394;2023-02-23T00:17:28;17.43;;;13.23;;
18013;SDS011;9132;47.946;10.394;2023-02-23T00:19:55;16.13;;;12.30;;
18013;SDS011;9132;47.946;10.394;2023-02-23T00:22:23;19.10;;;13.47;;
18013;SDS011;9132;47.946;10.394;2023-02-23T00:24:49;16.80;;;12.87;;
18013;SDS011;9132;47.946;10.394;2023-02-23T00:27:17;17.57;;;13.20;;
18013;SDS011;9132;47.946;10.394;2023-02-23T00:29:45;15.77;;;13.10;;
18013;SDS011;9132;47.946;10.394;2023-02-23T00:32:13;19.30;;;14.37;;
18013;SDS011;9132;47.946;10.394;2023-02-23T00:34:43;19.97;;;13.50;;
18013;SDS011;9132;47.946;10.394;2023-02-23T00:37:13;18.20;;;13.57;;
18013;SDS011;9132;47.946;10.394;2023-02-23T00:39:39;16.40;;;13.47;;
18013;SDS011;9132;47.946;10.394;2023-02-23T00:42:06;17.40;;;13.80;;
18013;SDS011;9132;47.946;10.394;2023-02-23T00:44:34;19.37;;;13.13;;
18013;SDS011;9132;47.946;10.394;2023-02-23T00:47:00;18.63;;;14.03;;
18013;SDS011;9132;47.946;10.394;2023-02-23T00:49:27;18.00;;;13.13;;
18013;SDS011;9132;47.946;10.394;2023-02-23T00:51:53;17.07;;;13.47;;
18013;SDS011;9132;47.946;10.394;2023-02-23T00:54:20;19.87;;;13.93;;
18013;SDS011;9132;47.946;10.394;2023-02-23T00:56:46;18.03;;;14.00;;
18013;SDS011;9132;47.946;10.394;2023-02-23T00:59:13;20.10;;;14.07;;
18013;SDS011;9132;47.946;10.394;2023-02-23T01:01:41;21.93;;;14.07;;
18013;SDS011;9132;47.946;10.394;2023-02-23T01:04:08;19.40;;;13.83;;
18013;SDS011;9132;47.946;10.394;2023-02-23T01:06:34;21.77;;;14.77;;
18013;SDS011;9132;47.946;10.394;2023-02-23T01:09:04;21.17;;;15.13;;
18013;SDS011;9132;47.946;10.394;2023-02-23T01:11:32;18.43;;;13.67;;
18013;SDS011;9132;47.946;10.394;2023-02-23T01:13:59;20.80;;;14.37;;
18013;SDS011;9132;47.946;10.394;2023-02-23T01:16:27;19.17;;;14.30;;
18013;SDS011;9132;47.946;10.394;2023-02-23T01:18:56;22.47;;;14.60;;
18013;SDS011;9132;47.946;10.394;2023-02-23T01:21:23;18.50;;;13.70;;
18013;SDS011;9132;47.946;10.394;2023-02-23T01:23:50;21.00;;;14.50;;
18013;SDS011;9132;47.946;10.394;2023-02-23T01:26:17;20.73;;;13.87;;
18013;SDS011;9132;47.946;10.394;2023-02-23T01:28:47;19.30;;;13.73;;
18013;SDS011;9132;47.946;10.394;2023-02-23T01:31:13;20.50;;;14.23;;
18013;SDS011;9132;47.946;10.394;2023-02-23T01:33:40;17.53;;;14.00;;
18013;SDS011;9132;47.946;10.394;2023-02-23T01:36:08;18.77;;;14.60;;
18013;SDS011;9132;47.946;10.394;2023-02-23T01:38:35;21.63;;;14.83;;
18013;SDS011;9132;47.946;10.394;2023-02-23T01:41:01;19.53;;;15.33;;
18013;SDS011;9132;47.946;10.394;2023-02-23T01:43:27;21.23;;;15.97;;
18013;SDS011;9132;47.946;10.394;2023-02-23T01:45:54;22.17;;;15.83;;
18013;SDS011;9132;47.946;10.394;2023-02-23T01:48:22;24.67;;;15.87;;
18013;SDS011;9132;47.946;10.394;2023-02-23T01:50:51;23.90;;;16.07;;
18013;SDS011;9132;47.946;10.394;2023-02-23T01:53:20;21.13;;;16.30;;
18013;SDS011;9132;47.946;10.394;2023-02-23T01:55:47;24.37;;;16.13;;
18013;SDS011;9132;47.946;10.394;2023-02-23T01:58:15;22.10;;;15.33;;
18013;SDS011;9132;47.946;10.394;2023-02-23T02:00:44;20.63;;;15.73;;
18013;SDS011;9132;47.946;10.394;2023-02-23T02:03:13;21.33;;;16.03;;
18013;SDS011;9132;47.946;10.394;2023-02-23T02:05:40;20.80;;;15.03;;
18013;SDS011;9132;47.946;10.394;2023-02-23T02:08:07;18.87;;;13.57;;
18013;SDS011;9132;47.946;10.394;2023-02-23T02:10:35;19.37;;;13.10;;
18013;SDS011;9132;47.946;10.394;2023-02-23T02:13:08;20.33;;;13.60;;
18013;SDS011;9132;47.946;10.394;2023-02-23T02:15:40;15.00;;;12.37;;
18013;SDS011;9132;47.946;10.394;2023-02-23T02:18:10;18.57;;;12.43;;
18013;SDS011;9132;47.946;10.394;2023-02-23T02:23:25;19.67;;;12.80;;
18013;SDS011;9132;47.946;10.394;2023-02-23T02:26:04;20.50;;;12.00;;
18013;SDS011;9132;47.946;10.394;2023-02-23T02:28:41;18.27;;;12.40;;
18013;SDS011;9132;47.946;10.394;2023-02-23T02:37:01;18.17;;;13.13;;
18013;SDS011;9132;47.946;10.394;2023-02-23T02:39:31;18.67;;;13.23;;
18013;SDS011;9132;47.946;10.394;2023-02-23T02:42:03;15.60;;;12.63;;
18013;SDS011;9132;47.946;10.394;2023-02-23T02:44:34;19.33;;;13.60;;
18013;SDS011;9132;47.946;10.394;2023-02-23T02:47:05;19.73;;;14.03;;
18013;SDS011;9132;47.946;10.394;2023-02-23T02:49:34;22.43;;;14.40;;
18013;SDS011;9132;47.946;10.394;2023-02-23T02:52:06;20.97;;;14.43;;
18013;SDS011;9132;47.946;10.394;2023-02-23T02:54:37;20.80;;;14.20;;
18013;SDS011;9132;47.946;10.394;2023-02-23T02:57:05;21.00;;;14.70;;
18013;SDS011;9132;47.946;10.394;2023-02-23T02:59:40;21.83;;;14.73;;
18013;SDS011;9132;47.946;10.394;2023-02-23T03:02:24;20.73;;;14.23;;
18013;SDS011;9132;47.946;10.394;2023-02-23T03:05:11;21.87;;;14.63;;
18013;SDS011;9132;47.946;10.394;2023-02-23T03:07:59;24.13;;;15.70;;
18013;SDS011;9132;47.946;10.394;2023-02-23T03:10:50;23.97;;;14.70;;
18013;SDS011;9132;47.946;10.394;2023-02-23T03:13:41;20.83;;;14.47;;
18013;SDS011;9132;47.946;10.394;2023-02-23T03:16:30;20.07;;;14.70;;
18013;SDS011;9132;47.946;10.394;2023-02-23T03:19:17;24.00;;;14.97;;
18013;SDS011;9132;47.946;10.394;2023-02-23T03:22:05;23.67;;;14.00;;
18013;SDS011;9132;47.946;10.394;2023-02-23T03:24:53;17.53;;;13.60;;
18013;SDS011;9132;47.946;10.394;2023-02-23T03:27:41;19.83;;;13.60;;
18013;SDS011;9132;47.946;10.394;2023-02-23T03:30:28;20.17;;;13.67;;
18013;SDS011;9132;47.946;10.394;2023-02-23T03:33:16;17.67;;;13.60;;
18013;SDS011;9132;47.946;10.394;2023-02-23T03:36:03;20.30;;;13.30;;
18013;SDS011;9132;47.946;10.394;2023-02-23T03:38:52;18.13;;;14.03;;
18013;SDS011;9132;47.946;10.394;2023-02-23T03:41:38;19.70;;;14.10;;
18013;SDS011;9132;47.946;10.394;2023-02-23T03:44:24;21.20;;;14.13;;
18013;SDS011;9132;47.946;10.394;2023-02-23T03:47:09;18.37;;;13.80;;
18013;SDS011;9132;47.946;10.394;2023-02-23T03:49:54;22.00;;;14.90;;
18013;SDS011;9132;47.946;10.394;2023-02-23T03:52:39;19.77;;;14.63;;
18013;SDS011;9132;47.946;10.394;2023-02-23T03:55:26;21.30;;;14.83;;
18013;SDS011;9132;47.946;10.394;2023-02-23T03:58:15;21.77;;;14.43;;
18013;SDS011;9132;47.946;10.394;2023-02-23T04:01:01;23.20;;;15.17;;
18013;SDS011;9132;47.946;10.394;2023-02-23T04:03:46;21.10;;;14.60;;
18013;SDS011;9132;47.946;10.394;2023-02-23T04:06:33;23.67;;;15.80;;
18013;SDS011;9132;47.946;10.394;2023-02-23T04:09:18;19.23;;;14.90;;
18013;SDS011;9132;47.946;10.394;2023-02-23T04:12:03;19.83;;;14.80;;
18013;SDS011;9132;47.946;10.394;2023-02-23T04:14:53;22.33;;;15.43;;
18013;SDS011;9132;47.946;10.394;2023-02-23T04:17:19;21.87;;;15.87;;
18013;SDS011;9132;47.946;10.394;2023-02-23T04:19:52;24.10;;;15.50;;
18013;SDS011;9132;47.946;10.394;2023-02-23T04:22:19;23.00;;;15.53;;
18013;SDS011;9132;47.946;10.394;2023-02-23T04:24:45;21.13;;;14.87;;
18013;SDS011;9132;47.946;10.394;2023-02-23T04:27:12;18.73;;;14.50;;
18013;SDS011;9132;47.946;10.394;2023-02-23T04:29:38;22.67;;;15.40;;
18013;SDS011;9132;47.946;10.394;2023-02-23T04:32:06;22.10;;;15.33;;
18013;SDS011;9132;47.946;10.394;2023-02-23T04:34:33;24.23;;;15.47;;
18013;SDS011;9132;47.946;10.394;2023-02-23T04:36:59;23.27;;;15.43;;
18013;SDS011;9132;47.946;10.394;2023-02-23T04:39:25;18.83;;;16.00;;
18013;SDS011;9132;47.946;10.394;2023-02-23T04:41:51;21.73;;;14.77;;
18013;SDS011;9132;47.946;10.394;2023-02-23T04:44:18;21.30;;;15.20;;
18013;SDS011;9132;47.946;10.394;2023-02-23T04:46:44;22.77;;;15.57;;
18013;SDS011;9132;47.946;10.394;2023-02-23T04:49:12;22.20;;;14.00;;
18013;SDS011;9132;47.946;10.394;2023-02-23T04:51:38;21.33;;;15.93;;
18013;SDS011;9132;47.946;10.394;2023-02-23T04:54:04;19.53;;;15.27;;
18013;SDS011;9132;47.946;10.394;2023-02-23T04:56:31;21.33;;;15.70;;
18013;SDS011;9132;47.946;10.394;2023-02-23T04:58:57;19.67;;;14.63;;
18013;SDS011;9132;47.946;10.394;2023-02-23T05:01:24;22.80;;;15.60;;
18013;SDS011;9132;47.946;10.394;2023-02-23T05:03:51;21.03;;;14.83;;
18013;SDS011;9132;47.946;10.394;2023-02-23T05:06:18;19.77;;;15.33;;
18013;SDS011;9132;47.946;10.394;2023-02-23T05:08:45;21.37;;;15.30;;
18013;SDS011;9132;47.946;10.394;2023-02-23T05:11:11;22.17;;;15.23;;
18013;SDS011;9132;47.946;10.394;2023-02-23T05:13:38;20.87;;;14.80;;
18013;SDS011;9132;47.946;10.394;2023-02-23T05:16:04;24.47;;;15.13;;
18013;SDS011;9132;47.946;10.394;2023-02-23T05:18:31;21.20;;;15.00;;
18013;SDS011;9132;47.946;10.394;2023-02-23T05:23:27;20.03;;;14.67;;
18013;SDS011;9132;47.946;10.394;2023-02-23T05:25:58;21.20;;;15.07;;
18013;SDS011;9132;47.946;10.394;2023-02-23T05:28:25;19.13;;;14.63;;
18013;SDS011;9132;47.946;10.394;2023-02-23T05:30:51;19.20;;;14.73;;
18013;SDS011;9132;47.946;10.394;2023-02-23T05:33:17;21.70;;;15.03;;
18013;SDS011;9132;47.946;10.394;2023-02-23T05:35:45;21.20;;;14.70;;
18013;SDS011;9132;47.946;10.394;2023-02-23T05:38:12;21.13;;;15.13;;
18013;SDS011;9132;47.946;10.394;2023-02-23T05:40:39;19.57;;;14.90;;
18013;SDS011;9132;47.946;10.394;2023-02-23T05:43:06;20.37;;;14.10;;
18013;SDS011;9132;47.946;10.394;2023-02-23T05:45:32;21.67;;;15.60;;
18013;SDS011;9132;47.946;10.394;2023-02-23T05:47:59;21.43;;;15.03;;
18013;SDS011;9132;47.946;10.394;2023-02-23T05:50:25;20.27;;;15.23;;
18013;SDS011;9132;47.946;10.394;2023-02-23T05:52:51;20.57;;;13.87;;
18013;SDS011;9132;47.946;10.394;2023-02-23T05:55:18;19.43;;;13.60;;
18013;SDS011;9132;47.946;10.394;2023-02-23T05:57:45;18.53;;;13.53;;
18013;SDS011;9132;47.946;10.394;2023-02-23T06:00:12;19.77;;;14.30;;
18013;SDS011;9132;47.946;10.394;2023-02-23T06:02:38;18.60;;;13.20;;
18013;SDS011;9132;47.946;10.394;2023-02-23T06:05:06;17.40;;;13.17;;
18013;SDS011;9132;47.946;10.394;2023-02-23T06:07:32;20.47;;;13.13;;
18013;SDS011;9132;47.946;10.394;2023-02-23T06:09:58;14.60;;;12.03;;
18013;SDS011;9132;47.946;10.394;2023-02-23T06:12:25;18.43;;;11.77;;
18013;SDS011;9132;47.946;10.394;2023-02-23T06:14:52;17.10;;;12.27;;
18013;SDS011;9132;47.946;10.394;2023-02-23T06:17:19;16.40;;;11.97;;
18013;SDS011;9132;47.946;10.394;2023-02-23T06:19:45;17.50;;;12.17;;
18013;SDS011;9132;47.946;10.394;2023-02-23T06:22:11;15.67;;;12.40;;
18013;SDS011;9132;47.946;10.394;2023-02-23T06:24:38;16.90;;;11.47;;
18013;SDS011;9132;47.946;10.394;2023-02-23T06:27:04;20.67;;;12.80;;
18013;SDS011;9132;47.946;10.394;2023-02-23T06:29:31;17.50;;;11.90;;
18013;SDS011;9132;47.946;10.394;2023-02-23T06:31:58;16.23;;;12.37;;
18013;SDS011;9132;47.946;10.394;2023-02-23T06:34:25;15.30;;;11.80;;
18013;SDS011;9132;47.946;10.394;2023-02-23T06:36:51;18.20;;;11.87;;
18013;SDS011;9132;47.946;10.394;2023-02-23T06:39:18;15.07;;;11.17;;
18013;SDS011;9132;47.946;10.394;2023-02-23T06:41:44;14.57;;;11.17;;
18013;SDS011;9132;47.946;10.394;2023-02-23T06:44:10;14.60;;;10.50;;
18013;SDS011;9132;47.946;10.394;2023-02-23T06:46:37;13.77;;;10.77;;
18013;SDS011;9132;47.946;10.394;2023-02-23T06:49:04;12.93;;;10.33;;
18013;SDS011;9132;47.946;10.394;2023-02-23T06:51:31;13.53;;;10.60;;
18013;SDS011;9132;47.946;10.394;2023-02-23T06:53:57;15.27;;;10.27;;
18013;SDS011;9132;47.946;10.394;2023-02-23T06:56:23;12.97;;;10.90;;
18013;SDS011;9132;47.946;10.394;2023-02-23T06:58:50;17.53;;;11.57;;
18013;SDS011;9132;47.946;10.394;2023-02-23T07:01:17;13.23;;;9.90;;
18013;SDS011;9132;47.946;10.394;2023-02-23T07:03:43;13.13;;;10.53;;
18013;SDS011;9132;47.946;10.394;2023-02-23T07:06:11;14.10;;;10.43;;
18013;SDS011;9132;47.946;10.394;2023-02-23T07:08:37;12.90;;;10.30;;
18013;SDS011;9132;47.946;10.394;2023-02-23T07:11:04;14.67;;;9.60;;
18013;SDS011;9132;47.946;10.394;2023-02-23T07:13:31;13.00;;;10.17;;
18013;SDS011;9132;47.946;10.394;2023-02-23T07:15:57;14.67;;;11.10;;
18013;SDS011;9132;47.946;10.394;2023-02-23T07:18:24;13.30;;;10.70;;
18013;SDS011;9132;47.946;10.394;2023-02-23T07:20:50;14.17;;;10.17;;
18013;SDS011;9132;47.946;10.394;2023-02-23T07:23:18;25.60;;;19.90;;
18013;SDS011;9132;47.946;10.394;2023-02-23T07:25:46;25.33;;;22.03;;
18013;SDS011;9132;47.946;10.394;2023-02-23T07:28:14;13.17;;;11.40;;
18013;SDS011;9132;47.946;10.394;2023-02-23T07:30:41;13.40;;;9.97;;
18013;SDS011;9132;47.946;10.394;2023-02-23T07:33:07;12.03;;;8.73;;
18013;SDS011;9132;47.946;10.394;2023-02-23T07:35:34;10.50;;;8.63;;
18013;SDS011;9132;47.946;10.394;2023-02-23T07:38:00;11.20;;;8.37;;
18013;SDS011;9132;47.946;10.394;2023-02-23T07:40:28;9.40;;;8.00;;
18013;SDS011;9132;47.946;10.394;2023-02-23T07:42:54;10.80;;;8.80;;
18013;SDS011;9132;47.946;10.394;2023-02-23T07:45:20;10.13;;;8.50;;
18013;SDS011;9132;47.946;10.394;2023-02-23T07:47:48;11.03;;;7.83;;
18013;SDS011;9132;47.946;10.394;2023-02-23T07:50:15;10.73;;;7.83;;
18013;SDS011;9132;47.946;10.394;2023-02-23T07:52:41;11.03;;;8.00;;
18013;SDS011;9132;47.946;10.394;2023-02-23T07:55:08;10.33;;;7.73;;
18013;SDS011;9132;47.946;10.394;2023-02-23T07:57:36;11.63;;;7.07;;
18013;SDS011;9132;47.946;10.394;2023-02-23T08:00:03;9.97;;;7.23;;
18013;SDS011;9132;47.946;10.394;2023-02-23T08:02:30;9.40;;;7.27;;
18013;SDS011;9132;47.946;10.394;2023-02-23T08:04:57;10.63;;;6.60;;
18013;SDS011;9132;47.946;10.394;2023-02-23T08:07:23;10.73;;;6.70;;
18013;SDS011;9132;47.946;10.394;2023-02-23T08:09:50;7.20;;;6.13;;
18013;SDS011;9132;47.946;10.394;2023-02-23T08:12:17;9.23;;;6.43;;
18013;SDS011;9132;47.946;10.394;2023-02-23T08:14:45;8.33;;;5.63;;
18013;SDS011;9132;47.946;10.394;2023-02-23T08:17:11;8.87;;;5.57;;
18013;SDS011;9132;47.946;10.394;2023-02-23T08:19:38;7.83;;;6.07;;
18013;SDS011;9132;47.946;10.394;2023-02-23T08:22:04;8.20;;;5.70;;
18013;SDS011;9132;47.946;10.394;2023-02-23T08:24:31;7.73;;;5.97;;
18013;SDS011;9132;47.946;10.394;2023-02-23T08:26:57;7.20;;;5.60;;
18013;SDS011;9132;47.946;10.394;2023-02-23T08:29:23;5.80;;;4.83;;
18013;SDS011;9132;47.946;10.394;2023-02-23T08:31:51;6.63;;;4.93;;
18013;SDS011;9132;47.946;10.394;2023-02-23T08:34:18;5.43;;;4.20;;
18013;SDS011;9132;47.946;10.394;2023-02-23T08:36:44;5.87;;;4.90;;
18013;SDS011;9132;47.946;10.394;2023-02-23T08:39:11;8.17;;;4.57;;
18013;SDS011;9132;47.946;10.394;2023-02-23T08:41:37;8.23;;;4.53;;
18013;SDS011;9132;47.946;10.394;2023-02-23T08:44:03;6.77;;;4.30;;
18013;SDS011;9132;47.946;10.394;2023-02-23T08:46:30;11.87;;;5.00;;
18013;SDS011;9132;47.946;10.394;2023-02-23T08:48:58;8.57;;;4.70;;
18013;SDS011;9132;47.946;10.394;2023-02-23T08:51:24;18.07;;;9.73;;
18013;SDS011;9132;47.946;10.394;2023-02-23T08:53:50;11.97;;;7.77;;
18013;SDS011;9132;47.946;10.394;2023-02-23T08:56:17;12.13;;;6.70;;
18013;SDS011;9132;47.946;10.394;2023-02-23T08:58:43;7.17;;;4.70;;
18013;SDS011;9132;47.946;10.394;2023-02-23T09:01:14;30.30;;;18.93;;
18013;SDS011;9132;47.946;10.394;2023-02-23T09:03:41;9.57;;;4.40;;
18013;SDS011;9132;47.946;10.394;2023-02-23T09:06:10;6.57;;;4.73;;
18013;SDS011;9132;47.946;10.394;2023-02-23T09:08:37;11.43;;;9.50;;
18013;SDS011;9132;47.946;10.394;2023-02-23T09:11:03;7.50;;;5.63;;
18013;SDS011;9132;47.946;10.394;2023-02-23T09:13:29;6.87;;;4.27;;
18013;SDS011;9132;47.946;10.394;2023-02-23T09:15:56;6.07;;;4.13;;
18013;SDS011;9132;47.946;10.394;2023-02-23T09:18:22;6.67;;;4.10;;
18013;SDS011;9132;47.946;10.394;2023-02-23T09:20:52;5.60;;;3.50;;
18013;SDS011;9132;47.946;10.394;2023-02-23T09:23:19;4.30;;;2.90;;
18013;SDS011;9132;47.946;10.394;2023-02-23T09:25:46;5.60;;;3.40;;
18013;SDS011;9132;47.946;10.394;2023-02-23T09:28:12;5.67;;;3.40;;
18013;SDS011;9132;47.946;10.394;2023-02-23T09:30:39;7.30;;;3.30;;
18013;SDS011;9132;47.946;10.394;2023-02-23T09:33:06;6.30;;;4.23;;
18013;SDS011;9132;47.946;10.394;2023-02-23T09:35:32;5.83;;;2.63;;
18013;SDS011;9132;47.946;10.394;2023-02-23T09:38:00;4.93;;;2.47;;
18013;SDS011;9132;47.946;10.394;2023-02-23T09:40:29;5.10;;;2.80;;
18013;SDS011;9132;47.946;10.394;2023-02-23T09:42:59;4.90;;;2.73;;
18013;SDS011;9132;47.946;10.394;2023-02-23T09:45:30;3.53;;;2.30;;
18013;SDS011;9132;47.946;10.394;2023-02-23T09:48:07;6.50;;;2.23;;
18013;SDS011;9132;47.946;10.394;2023-02-23T09:50:35;4.83;;;2.60;;
18013;SDS011;9132;47.946;10.394;2023-02-23T09:53:02;4.20;;;2.13;;
18013;SDS011;9132;47.946;10.394;2023-02-23T09:55:31;4.43;;;2.53;;
18013;SDS011;9132;47.946;10.394;2023-02-23T09:58:01;4.50;;;2.07;;
18013;SDS011;9132;47.946;10.394;2023-02-23T10:00:28;5.27;;;2.30;;
18013;SDS011;9132;47.946;10.394;2023-02-23T10:02:59;4.53;;;2.60;;
18013;SDS011;9132;47.946;10.394;2023-02-23T10:05:29;3.60;;;2.03;;
18013;SDS011;9132;47.946;10.394;2023-02-23T10:07:58;3.63;;;2.20;;
18013;SDS011;9132;47.946;10.394;2023-02-23T10:10:28;3.60;;;2.23;;
18013;SDS011;9132;47.946;10.394;2023-02-23T10:13:00;3.50;;;1.93;;
18013;SDS011;9132;47.946;10.394;2023-02-23T10:15:31;4.93;;;1.90;;
18013;SDS011;9132;47.946;10.394;2023-02-23T10:18:02;7.77;;;2.97;;
18013;SDS011;9132;47.946;10.394;2023-02-23T10:20:34;3.77;;;1.90;;
18013;SDS011;9132;47.946;10.394;2023-02-23T10:23:06;5.13;;;2.37;;
18013;SDS011;9132;47.946;10.394;2023-02-23T10:25:34;2.37;;;1.80;;
18013;SDS011;9132;47.946;10.394;2023-02-23T10:28:03;5.17;;;2.30;;
18013;SDS011;9132;47.946;10.394;2023-02-23T10:30:29;7.00;;;2.70;;
18013;SDS011;9132;47.946;10.394;2023-02-23T10:32:58;3.87;;;2.10;;
18013;SDS011;9132;47.946;10.394;2023-02-23T10:35:29;5.00;;;2.10;;
18013;SDS011;9132;47.946;10.394;2023-02-23T10:37:56;5.53;;;2.67;;
18013;SDS011;9132;47.946;10.394;2023-02-23T10:40:23;5.57;;;2.80;;
18013;SDS011;9132;47.946;10.394;2023-02-23T10:42:51;5.70;;;2.77;;
18013;SDS011;9132;47.946;10.394;2023-02-23T10:45:21;6.77;;;2.20;;
18013;SDS011;9132;47.946;10.394;2023-02-23T10:47:51;6.40;;;2.50;;
18013;SDS011;9132;47.946;10.394;2023-02-23T10:50:18;4.03;;;2.23;;
18013;SDS011;9132;47.946;10.394;2023-02-23T10:52:47;5.93;;;2.30;;
18013;SDS011;9132;47.946;10.394;2023-02-23T10:55:19;5.00;;;2.10;;
18013;SDS011;9132;47.946;10.394;2023-02-23T10:57:47;5.30;;;1.97;;
18013;SDS011;9132;47.946;10.394;2023-02-23T11:00:25;3.37;;;1.80;;
18013;SDS011;9132;47.946;10.394;2023-02-23T11:02:57;7.13;;;2.40;;
18013;SDS011;9132;47.946;10.394;2023-02-23T11:05:26;4.20;;;2.03;;
18013;SDS011;9132;47.946;10.394;2023-02-23T11:08:07;4.23;;;2.20;;
18013;SDS011;9132;47.946;10.394;2023-02-23T11:10:34;4.33;;;2.20;;
18013;SDS011;9132;47.946;10.394;2023-02-23T11:13:01;8.80;;;2.30;;
18013;SDS011;9132;47.946;10.394;2023-02-23T11:15:29;5.70;;;2.13;;
18013;SDS011;9132;47.946;10.394;2023-02-23T11:17:56;4.70;;;2.47;;
18013;SDS011;9132;47.946;10.394;2023-02-23T11:20:24;5.50;;;2.20;;
18013;SDS011;9132;47.946;10.394;2023-02-23T11:22:51;5.97;;;2.50;;
18013;SDS011;9132;47.946;10.394;2023-02-23T11:25:19;4.97;;;2.07;;
18013;SDS011;9132;47.946;10.394;2023-02-23T11:27:48;7.73;;;2.50;;
18013;SDS011;9132;47.946;10.394;2023-02-23T11:30:18;5.97;;;2.30;;
18013;SDS011;9132;47.946;10.394;2023-02-23T11:32:48;5.60;;;2.60;;
18013;SDS011;9132;47.946;10.394;2023-02-23T11:35:26;8.53;;;2.53;;
18013;SDS011;9132;47.946;10.394;2023-02-23T11:37:52;5.03;;;2.30;;
18013;SDS011;9132;47.946;10.394;2023-02-23T11:40:20;5.07;;;2.70;;
18013;SDS011;9132;47.946;10.394;2023-02-23T11:42:50;4.93;;;2.80;;
18013;SDS011;9132;47.946;10.394;2023-02-23T11:45:18;3.70;;;1.90;;
18013;SDS011;9132;47.946;10.394;2023-02-23T11:47:45;4.20;;;2.10;;
18013;SDS011;9132;47.946;10.394;2023-02-23T11:50:19;10.20;;;2.60;;
18013;SDS011;9132;47.946;10.394;2023-02-23T11:52:47;5.70;;;2.30;;
18013;SDS011;9132;47.946;10.394;2023-02-23T11:55:15;6.90;;;2.50;;
18013;SDS011;9132;47.946;10.394;2023-02-23T11:57:43;5.20;;;2.47;;
18013;SDS011;9132;47.946;10.394;2023-02-23T12:00:11;5.03;;;2.07;;
18013;SDS011;9132;47.946;10.394;2023-02-23T12:02:43;5.63;;;2.50;;
18013;SDS011;9132;47.946;10.394;2023-02-23T12:05:16;7.10;;;2.77;;
18013;SDS011;9132;47.946;10.394;2023-02-23T12:07:45;6.43;;;2.30;;
18013;SDS011;9132;47.946;10.394;2023-02-23T12:10:17;5.33;;;2.70;;
18013;SDS011;9132;47.946;10.394;2023-02-23T12:12:48;8.40;;;2.53;;
18013;SDS011;9132;47.946;10.394;2023-02-23T12:15:19;6.73;;;2.40;;
18013;SDS011;9132;47.946;10.394;2023-02-23T12:17:48;5.13;;;2.40;;
18013;SDS011;9132;47.946;10.394;2023-02-23T12:20:16;5.03;;;2.30;;
18013;SDS011;9132;47.946;10.394;2023-02-23T12:22:47;7.07;;;4.03;;
18013;SDS011;9132;47.946;10.394;2023-02-23T12:25:19;7.63;;;2.67;;
18013;SDS011;9132;47.946;10.394;2023-02-23T12:27:47;5.70;;;1.90;;
18013;SDS011;9132;47.946;10.394;2023-02-23T12:30:17;3.73;;;2.10;;
18013;SDS011;9132;47.946;10.394;2023-02-23T12:32:45;7.37;;;2.73;;
18013;SDS011;9132;47.946;10.394;2023-02-23T12:35:16;7.37;;;2.50;;
18013;SDS011;9132;47.946;10.394;2023-02-23T12:37:44;5.73;;;2.03;;
18013;SDS011;9132;47.946;10.394;2023-02-23T12:40:16;4.70;;;2.07;;
18013;SDS011;9132;47.946;10.394;2023-02-23T12:42:45;5.73;;;2.50;;
18013;SDS011;9132;47.946;10.394;2023-02-23T12:45:13;9.07;;;5.90;;
18013;SDS011;9132;47.946;10.394;2023-02-23T12:47:41;10.90;;;6.20;;
18013;SDS011;9132;47.946;10.394;2023-02-23T12:50:10;8.10;;;2.60;;
18013;SDS011;9132;47.946;10.394;2023-02-23T12:52:39;6.77;;;3.00;;
18013;SDS011;9132;47.946;10.394;2023-02-23T12:55:08;8.50;;;2.60;;
18013;SDS011;9132;47.946;10.394;2023-02-23T12:57:38;5.40;;;2.20;;
18013;SDS011;9132;47.946;10.394;2023-02-23T13:00:17;6.53;;;2.33;;
18013;SDS011;9132;47.946;10.394;2023-02-23T13:02:57;3.67;;;2.10;;
18013;SDS011;9132;47.946;10.394;2023-02-23T13:05:26;6.30;;;2.33;;
18013;SDS011;9132;47.946;10.394;2023-02-23T13:07:57;5.60;;;2.63;;
18013;SDS011;9132;47.946;10.394;2023-02-23T13:10:25;6.53;;;2.43;;
18013;SDS011;9132;47.946;10.394;2023-02-23T13:12:59;6.73;;;2.73;;
18013;SDS011;9132;47.946;10.394;2023-02-23T13:15:29;8.47;;;2.53;;
18013;SDS011;9132;47.946;10.394;2023-02-23T13:18:01;5.90;;;2.30;;
18013;SDS011;9132;47.946;10.394;2023-02-23T13:20:31;5.77;;;2.40;;
18013;SDS011;9132;47.946;10.394;2023-02-23T13:23:00;4.07;;;2.10;;
18013;SDS011;9132;47.946;10.394;2023-02-23T13:25:35;5.00;;;2.30;;
18013;SDS011;9132;47.946;10.394;2023-02-23T13:28:04;4.50;;;2.40;;
18013;SDS011;9132;47.946;10.394;2023-02-23T13:30:31;6.37;;;2.40;;
18013;SDS011;9132;47.946;10.394;2023-02-23T13:32:58;5.07;;;2.20;;
18013;SDS011;9132;47.946;10.394;2023-02-23T13:35:26;4.33;;;2.47;;
18013;SDS011;9132;47.946;10.394;2023-02-23T13:37:59;4.57;;;2.20;;
18013;SDS011;9132;47.946;10.394;2023-02-23T13:40:30;5.20;;;2.40;;
18013;SDS011;9132;47.946;10.394;2023-02-23T13:43:00;8.03;;;2.60;;
18013;SDS011;9132;47.946;10.394;2023-02-23T13:45:37;7.70;;;2.83;;
18013;SDS011;9132;47.946;10.394;2023-02-23T13:48:12;3.73;;;2.53;;
18013;SDS011;9132;47.946;10.394;2023-02-23T13:50:41;6.47;;;2.50;;
18013;SDS011;9132;47.946;10.394;2023-02-23T13:53:26;4.80;;;2.77;;
18013;SDS011;9132;47.946;10.394;2023-02-23T13:55:52;6.05;;;2.90;;
18013;SDS011;9132;47.946;10.394;2023-02-23T13:58:25;6.67;;;2.80;;
18013;SDS011;9132;47.946;10.394;2023-02-23T14:01:03;6.00;;;2.77;;
18013;SDS011;9132;47.946;10.394;2023-02-23T14:03:30;5.37;;;2.70;;
18013;SDS011;9132;47.946;10.394;2023-02-23T14:05:59;4.97;;;2.70;;
18013;SDS011;9132;47.946;10.394;2023-02-23T14:08:27;6.07;;;2.47;;
18013;SDS011;9132;47.946;10.394;2023-02-23T14:10:53;6.03;;;2.90;;
18013;SDS011;9132;47.946;10.394;2023-02-23T14:13:25;5.10;;;2.40;;
18013;SDS011;9132;47.946;10.394;2023-02-23T14:18:35;5.40;;;2.63;;
18013;SDS011;9132;47.946;10.394;2023-02-23T14:21:16;5.73;;;2.77;;
18013;SDS011;9132;47.946;10.394;2023-02-23T14:23:49;6.23;;;2.77;;
18013;SDS011;9132;47.946;10.394;2023-02-23T14:26:17;9.00;;;2.73;;
18013;SDS011;9132;47.946;10.394;2023-02-23T14:29:14;7.97;;;2.90;;
18013;SDS011;9132;47.946;10.394;2023-02-23T14:31:51;7.30;;;2.73;;
18013;SDS011;9132;47.946;10.394;2023-02-23T14:34:19;8.50;;;3.23;;
18013;SDS011;9132;47.946;10.394;2023-02-23T14:36:47;9.67;;;3.03;;
18013;SDS011;9132;47.946;10.394;2023-02-23T14:39:17;8.47;;;3.07;;
18013;SDS011;9132;47.946;10.394;2023-02-23T14:41:48;8.03;;;3.00;;
18013;SDS011;9132;47.946;10.394;2023-02-23T14:44:15;7.90;;;3.00;;
18013;SDS011;9132;47.946;10.394;2023-02-23T14:46:49;10.70;;;3.10;;
18013;SDS011;9132;47.946;10.394;2023-02-23T14:49:20;7.43;;;2.90;;
18013;SDS011;9132;47.946;10.394;2023-02-23T14:51:48;7.53;;;3.07;;
18013;SDS011;9132;47.946;10.394;2023-02-23T14:54:22;6.77;;;2.80;;
18013;SDS011;9132;47.946;10.394;2023-02-23T14:56:50;6.80;;;3.10;;
18013;SDS011;9132;47.946;10.394;2023-02-23T14:59:17;6.10;;;2.70;;
18013;SDS011;9132;47.946;10.394;2023-02-23T15:01:45;7.57;;;3.60;;